sensor_id;sensor_type;location;lat;lon;timestamp;temperature;humidity
22827;DHT22;11580;52.562;13.418;2022-11-13T00:00:00;15.50;37.80
22827;DHT22;11580;52.562;13.418;2022-11-13T00:02:46;15.50;37.90
22827;DHT22;11580;52.562;13.418;2022-11-13T00:05:33;15.50;37.80
22827;DHT22;11580;52.562;13.418;2022-11-13T00:08:19;15.50;37.80
22827;DHT22;11580;52.562;13.418;2022-11-13T00:11:06;15.50;38.40
22827;DHT22;11580;52.562;13.418;2022-11-13T00:13:53;15.50;37.70
22827;DHT22;11580;52.562;13.418;2022-11-13T00:16:38;15.50;37.70
22827;DHT22;11580;52.562;13.418;2022-11-13T00:19:24;15.50;37.70
22827;DHT22;11580;52.562;13.418;2022-11-13T00:22:11;15.50;37.70
22827;DHT22;11580;52.562;13.418;2022-11-13T00:24:57;15.50;37.70
22827;DHT22;11580;52.562;13.418;2022-11-13T00:27:43;15.50;37.70
22827;DHT22;11580;52.562;13.418;2022-11-13T00:30:28;15.50;37.60
22827;DHT22;11580;52.562;13.418;2022-11-13T00:33:14;15.50;37.60
22827;DHT22;11580;52.562;13.418;2022-11-13T00:36:03;15.50;37.60
22827;DHT22;11580;52.562;13.418;2022-11-13T00:38:53;15.50;37.50
22827;DHT22;11580;52.562;13.418;2022-11-13T00:41:39;15.60;37.60
22827;DHT22;11580;52.562;13.418;2022-11-13T00:44:24;15.50;37.60
22827;DHT22;11580;52.562;13.418;2022-11-13T00:47:10;15.50;37.60
22827;DHT22;11580;52.562;13.418;2022-11-13T00:49:55;15.50;37.60
22827;DHT22;11580;52.562;13.418;2022-11-13T00:52:41;15.50;37.60
22827;DHT22;11580;52.562;13.418;2022-11-13T00:55:28;15.50;37.60
22827;DHT22;11580;52.562;13.418;2022-11-13T00:58:14;15.50;37.50
22827;DHT22;11580;52.562;13.418;2022-11-13T01:01:04;15.60;37.60
22827;DHT22;11580;52.562;13.418;2022-11-13T01:03:51;15.60;37.50
22827;DHT22;11580;52.562;13.418;2022-11-13T01:06:37;15.50;37.50
22827;DHT22;11580;52.562;13.418;2022-11-13T01:09:22;15.60;37.50
22827;DHT22;11580;52.562;13.418;2022-11-13T01:12:09;15.60;37.60
22827;DHT22;11580;52.562;13.418;2022-11-13T01:14:55;15.60;38.20
22827;DHT22;11580;52.562;13.418;2022-11-13T01:17:41;15.60;37.50
22827;DHT22;11580;52.562;13.418;2022-11-13T01:20:27;15.60;37.50
22827;DHT22;11580;52.562;13.418;2022-11-13T01:23:12;15.60;37.50
22827;DHT22;11580;52.562;13.418;2022-11-13T01:26:04;15.60;37.50
22827;DHT22;11580;52.562;13.418;2022-11-13T01:28:57;15.60;37.40
22827;DHT22;11580;52.562;13.418;2022-11-13T01:31:43;15.60;37.50
22827;DHT22;11580;52.562;13.418;2022-11-13T01:34:29;15.60;37.50
22827;DHT22;11580;52.562;13.418;2022-11-13T01:37:15;15.60;37.50
22827;DHT22;11580;52.562;13.418;2022-11-13T01:40:00;15.60;37.50
22827;DHT22;11580;52.562;13.418;2022-11-13T01:42:46;15.60;37.40
22827;DHT22;11580;52.562;13.418;2022-11-13T01:46:08;15.60;37.40
22827;DHT22;11580;52.562;13.418;2022-11-13T01:49:14;15.60;37.20
22827;DHT22;11580;52.562;13.418;2022-11-13T01:52:10;15.60;37.90
22827;DHT22;11580;52.562;13.418;2022-11-13T01:55:01;15.60;37.30
22827;DHT22;11580;52.562;13.418;2022-11-13T01:57:49;15.60;37.30
22827;DHT22;11580;52.562;13.418;2022-11-13T02:00:35;15.60;37.30
22827;DHT22;11580;52.562;13.418;2022-11-13T02:03:22;15.60;37.30
22827;DHT22;11580;52.562;13.418;2022-11-13T02:06:08;15.60;38.00
22827;DHT22;11580;52.562;13.418;2022-11-13T02:08:54;15.60;37.20
22827;DHT22;11580;52.562;13.418;2022-11-13T02:11:41;15.60;37.20
22827;DHT22;11580;52.562;13.418;2022-11-13T02:14:28;15.80;37.40
22827;DHT22;11580;52.562;13.418;2022-11-13T02:17:16;15.60;37.20
22827;DHT22;11580;52.562;13.418;2022-11-13T02:20:07;15.60;37.20
22827;DHT22;11580;52.562;13.418;2022-11-13T02:23:00;15.60;37.10
22827;DHT22;11580;52.562;13.418;2022-11-13T02:25:53;15.60;37.10
22827;DHT22;11580;52.562;13.418;2022-11-13T02:28:39;15.60;37.10
22827;DHT22;11580;52.562;13.418;2022-11-13T02:31:25;15.60;37.10
22827;DHT22;11580;52.562;13.418;2022-11-13T02:34:11;15.60;37.10
22827;DHT22;11580;52.562;13.418;2022-11-13T02:36:57;15.60;37.10
22827;DHT22;11580;52.562;13.418;2022-11-13T02:39:42;15.60;37.10
22827;DHT22;11580;52.562;13.418;2022-11-13T02:42:29;15.70;37.90
22827;DHT22;11580;52.562;13.418;2022-11-13T02:45:16;15.70;37.20
22827;DHT22;11580;52.562;13.418;2022-11-13T02:48:02;15.70;37.10
22827;DHT22;11580;52.562;13.418;2022-11-13T02:50:48;15.70;37.80
22827;DHT22;11580;52.562;13.418;2022-11-13T02:53:34;15.70;37.10
22827;DHT22;11580;52.562;13.418;2022-11-13T02:56:19;15.70;37.10
22827;DHT22;11580;52.562;13.418;2022-11-13T02:59:07;15.70;37.10
22827;DHT22;11580;52.562;13.418;2022-11-13T03:01:52;15.70;37.00
22827;DHT22;11580;52.562;13.418;2022-11-13T03:04:38;15.70;37.00
22827;DHT22;11580;52.562;13.418;2022-11-13T03:07:23;15.70;37.00
22827;DHT22;11580;52.562;13.418;2022-11-13T03:10:10;15.70;37.00
22827;DHT22;11580;52.562;13.418;2022-11-13T03:12:57;15.70;36.90
22827;DHT22;11580;52.562;13.418;2022-11-13T03:15:45;15.70;36.90
22827;DHT22;11580;52.562;13.418;2022-11-13T03:18:30;15.70;36.90
22827;DHT22;11580;52.562;13.418;2022-11-13T03:21:16;15.70;36.90
22827;DHT22;11580;52.562;13.418;2022-11-13T03:24:01;15.70;37.00
22827;DHT22;11580;52.562;13.418;2022-11-13T03:26:47;15.70;37.00
22827;DHT22;11580;52.562;13.418;2022-11-13T03:29:32;15.70;37.00
22827;DHT22;11580;52.562;13.418;2022-11-13T03:32:19;15.70;37.00
22827;DHT22;11580;52.562;13.418;2022-11-13T03:35:06;15.70;36.90
22827;DHT22;11580;52.562;13.418;2022-11-13T03:37:52;15.70;37.00
22827;DHT22;11580;52.562;13.418;2022-11-13T03:40:38;15.70;36.90
22827;DHT22;11580;52.562;13.418;2022-11-13T03:43:23;15.70;36.90
22827;DHT22;11580;52.562;13.418;2022-11-13T03:46:09;15.70;36.90
22827;DHT22;11580;52.562;13.418;2022-11-13T03:48:56;15.70;37.60
22827;DHT22;11580;52.562;13.418;2022-11-13T03:51:42;15.60;37.50
22827;DHT22;11580;52.562;13.418;2022-11-13T03:54:27;15.60;37.50
22827;DHT22;11580;52.562;13.418;2022-11-13T03:57:12;15.60;36.70
22827;DHT22;11580;52.562;13.418;2022-11-13T03:59:58;15.60;36.60
22827;DHT22;11580;52.562;13.418;2022-11-13T04:02:44;15.60;36.60
22827;DHT22;11580;52.562;13.418;2022-11-13T04:05:31;15.60;36.60
22827;DHT22;11580;52.562;13.418;2022-11-13T04:08:17;15.60;36.40
22827;DHT22;11580;52.562;13.418;2022-11-13T04:11:06;15.60;36.50
22827;DHT22;11580;52.562;13.418;2022-11-13T04:13:53;15.50;36.30
22827;DHT22;11580;52.562;13.418;2022-11-13T04:16:38;15.50;36.50
22827;DHT22;11580;52.562;13.418;2022-11-13T04:19:24;15.50;36.60
22827;DHT22;11580;52.562;13.418;2022-11-13T04:22:11;15.50;36.50
22827;DHT22;11580;52.562;13.418;2022-11-13T04:24:57;15.50;37.10
22827;DHT22;11580;52.562;13.418;2022-11-13T04:27:42;15.50;36.40
22827;DHT22;11580;52.562;13.418;2022-11-13T04:30:28;15.50;37.10
22827;DHT22;11580;52.562;13.418;2022-11-13T04:33:13;15.50;36.30
22827;DHT22;11580;52.562;13.418;2022-11-13T04:35:59;15.50;36.40
22827;DHT22;11580;52.562;13.418;2022-11-13T04:38:47;15.50;36.40
22827;DHT22;11580;52.562;13.418;2022-11-13T04:41:32;15.50;37.10
22827;DHT22;11580;52.562;13.418;2022-11-13T04:44:36;15.50;37.10
22827;DHT22;11580;52.562;13.418;2022-11-13T04:47:21;15.50;36.40
22827;DHT22;11580;52.562;13.418;2022-11-13T04:50:08;15.50;37.10
22827;DHT22;11580;52.562;13.418;2022-11-13T04:52:54;15.50;36.40
22827;DHT22;11580;52.562;13.418;2022-11-13T04:55:41;15.50;36.40
22827;DHT22;11580;52.562;13.418;2022-11-13T04:58:27;15.50;36.20
22827;DHT22;11580;52.562;13.418;2022-11-13T05:01:12;15.50;36.30
22827;DHT22;11580;52.562;13.418;2022-11-13T05:03:58;15.40;36.90
22827;DHT22;11580;52.562;13.418;2022-11-13T05:06:43;15.40;36.20
22827;DHT22;11580;52.562;13.418;2022-11-13T05:09:29;15.40;36.20
22827;DHT22;11580;52.562;13.418;2022-11-13T05:12:17;15.40;37.00
22827;DHT22;11580;52.562;13.418;2022-11-13T05:15:03;15.40;36.20
22827;DHT22;11580;52.562;13.418;2022-11-13T05:17:50;15.40;36.20
22827;DHT22;11580;52.562;13.418;2022-11-13T05:20:37;15.40;36.20
22827;DHT22;11580;52.562;13.418;2022-11-13T05:23:23;15.40;36.20
22827;DHT22;11580;52.562;13.418;2022-11-13T05:26:10;15.40;36.20
22827;DHT22;11580;52.562;13.418;2022-11-13T05:28:59;15.40;36.20
22827;DHT22;11580;52.562;13.418;2022-11-13T05:31:45;15.40;36.90
22827;DHT22;11580;52.562;13.418;2022-11-13T05:34:31;15.40;36.90
22827;DHT22;11580;52.562;13.418;2022-11-13T05:37:17;15.40;36.30
22827;DHT22;11580;52.562;13.418;2022-11-13T05:40:03;15.40;36.30
22827;DHT22;11580;52.562;13.418;2022-11-13T05:42:51;15.40;36.30
22827;DHT22;11580;52.562;13.418;2022-11-13T05:45:38;15.40;36.30
22827;DHT22;11580;52.562;13.418;2022-11-13T05:48:24;15.40;36.20
22827;DHT22;11580;52.562;13.418;2022-11-13T05:51:12;15.40;36.30
22827;DHT22;11580;52.562;13.418;2022-11-13T05:53:59;15.40;36.30
22827;DHT22;11580;52.562;13.418;2022-11-13T05:56:46;15.40;36.30
22827;DHT22;11580;52.562;13.418;2022-11-13T05:59:31;15.40;36.30
22827;DHT22;11580;52.562;13.418;2022-11-13T06:02:18;15.40;36.30
22827;DHT22;11580;52.562;13.418;2022-11-13T06:05:05;15.40;36.20
22827;DHT22;11580;52.562;13.418;2022-11-13T06:07:51;15.40;36.20
22827;DHT22;11580;52.562;13.418;2022-11-13T06:10:36;15.30;36.20
22827;DHT22;11580;52.562;13.418;2022-11-13T06:13:22;15.40;36.40
22827;DHT22;11580;52.562;13.418;2022-11-13T06:16:09;15.30;37.10
22827;DHT22;11580;52.562;13.418;2022-11-13T06:18:59;15.30;36.50
22827;DHT22;11580;52.562;13.418;2022-11-13T06:21:46;15.30;36.60
22827;DHT22;11580;52.562;13.418;2022-11-13T06:24:32;15.30;36.60
22827;DHT22;11580;52.562;13.418;2022-11-13T06:27:17;15.30;36.60
22827;DHT22;11580;52.562;13.418;2022-11-13T06:30:04;15.30;36.70
22827;DHT22;11580;52.562;13.418;2022-11-13T06:32:51;15.30;36.80
22827;DHT22;11580;52.562;13.418;2022-11-13T06:35:38;15.30;36.90
22827;DHT22;11580;52.562;13.418;2022-11-13T06:38:24;15.30;37.70
22827;DHT22;11580;52.562;13.418;2022-11-13T06:41:12;15.30;37.70
22827;DHT22;11580;52.562;13.418;2022-11-13T06:43:59;15.30;37.10
22827;DHT22;11580;52.562;13.418;2022-11-13T06:46:45;15.30;37.10
22827;DHT22;11580;52.562;13.418;2022-11-13T06:49:31;15.30;37.10
22827;DHT22;11580;52.562;13.418;2022-11-13T06:52:18;15.30;37.10
22827;DHT22;11580;52.562;13.418;2022-11-13T06:55:04;15.30;37.10
22827;DHT22;11580;52.562;13.418;2022-11-13T06:57:50;15.30;37.10
22827;DHT22;11580;52.562;13.418;2022-11-13T07:00:35;15.30;37.10
22827;DHT22;11580;52.562;13.418;2022-11-13T07:03:23;15.30;37.10
22827;DHT22;11580;52.562;13.418;2022-11-13T07:06:12;15.30;37.20
22827;DHT22;11580;52.562;13.418;2022-11-13T07:09:00;15.30;37.20
22827;DHT22;11580;52.562;13.418;2022-11-13T07:11:46;15.30;37.90
22827;DHT22;11580;52.562;13.418;2022-11-13T07:14:31;15.30;37.90
22827;DHT22;11580;52.562;13.418;2022-11-13T07:17:17;15.30;37.90
22827;DHT22;11580;52.562;13.418;2022-11-13T07:20:03;15.30;38.00
22827;DHT22;11580;52.562;13.418;2022-11-13T07:22:49;15.40;37.30
22827;DHT22;11580;52.562;13.418;2022-11-13T07:25:40;15.40;37.30
22827;DHT22;11580;52.562;13.418;2022-11-13T07:28:26;15.30;37.50
22827;DHT22;11580;52.562;13.418;2022-11-13T07:31:12;15.30;37.30
22827;DHT22;11580;52.562;13.418;2022-11-13T07:33:59;15.30;37.30
22827;DHT22;11580;52.562;13.418;2022-11-13T07:36:45;15.30;37.90
22827;DHT22;11580;52.562;13.418;2022-11-13T07:39:31;15.30;38.00
22827;DHT22;11580;52.562;13.418;2022-11-13T07:42:18;15.30;37.40
22827;DHT22;11580;52.562;13.418;2022-11-13T07:45:04;15.30;37.70
22827;DHT22;11580;52.562;13.418;2022-11-13T07:47:51;15.30;37.80
22827;DHT22;11580;52.562;13.418;2022-11-13T07:50:37;15.30;38.60
22827;DHT22;11580;52.562;13.418;2022-11-13T07:53:23;15.30;38.10
22827;DHT22;11580;52.562;13.418;2022-11-13T07:56:09;15.30;38.10
22827;DHT22;11580;52.562;13.418;2022-11-13T07:58:56;15.30;38.70
22827;DHT22;11580;52.562;13.418;2022-11-13T08:01:41;15.40;38.10
22827;DHT22;11580;52.562;13.418;2022-11-13T08:04:28;15.40;38.80
22827;DHT22;11580;52.562;13.418;2022-11-13T08:07:14;15.40;38.20
22827;DHT22;11580;52.562;13.418;2022-11-13T08:10:00;15.50;38.20
22827;DHT22;11580;52.562;13.418;2022-11-13T08:12:46;15.50;38.10
22827;DHT22;11580;52.562;13.418;2022-11-13T08:15:33;15.50;38.00
22827;DHT22;11580;52.562;13.418;2022-11-13T08:18:19;15.60;38.10
22827;DHT22;11580;52.562;13.418;2022-11-13T08:21:05;15.60;38.00
22827;DHT22;11580;52.562;13.418;2022-11-13T08:23:51;15.60;37.80
22827;DHT22;11580;52.562;13.418;2022-11-13T08:26:36;15.60;38.50
22827;DHT22;11580;52.562;13.418;2022-11-13T08:29:22;15.60;37.90
22827;DHT22;11580;52.562;13.418;2022-11-13T08:32:13;15.60;37.80
22827;DHT22;11580;52.562;13.418;2022-11-13T08:34:59;15.60;38.10
22827;DHT22;11580;52.562;13.418;2022-11-13T08:37:44;15.60;37.90
22827;DHT22;11580;52.562;13.418;2022-11-13T08:40:30;15.60;38.00
22827;DHT22;11580;52.562;13.418;2022-11-13T08:43:16;15.60;38.00
22827;DHT22;11580;52.562;13.418;2022-11-13T08:46:02;15.60;38.10
22827;DHT22;11580;52.562;13.418;2022-11-13T08:48:50;15.60;38.10
22827;DHT22;11580;52.562;13.418;2022-11-13T08:51:36;15.60;38.20
22827;DHT22;11580;52.562;13.418;2022-11-13T08:54:21;15.60;38.10
22827;DHT22;11580;52.562;13.418;2022-11-13T08:57:07;15.60;38.20
22827;DHT22;11580;52.562;13.418;2022-11-13T08:59:53;15.60;39.00
22827;DHT22;11580;52.562;13.418;2022-11-13T09:02:38;15.70;39.00
22827;DHT22;11580;52.562;13.418;2022-11-13T09:05:26;15.70;38.40
22827;DHT22;11580;52.562;13.418;2022-11-13T09:08:12;15.70;38.40
22827;DHT22;11580;52.562;13.418;2022-11-13T09:11:01;15.70;38.20
22827;DHT22;11580;52.562;13.418;2022-11-13T09:13:48;15.80;38.10
22827;DHT22;11580;52.562;13.418;2022-11-13T09:16:34;15.80;38.00
22827;DHT22;11580;52.562;13.418;2022-11-13T09:19:19;15.80;38.70
22827;DHT22;11580;52.562;13.418;2022-11-13T09:22:07;15.90;38.00
22827;DHT22;11580;52.562;13.418;2022-11-13T09:24:53;15.90;38.00
22827;DHT22;11580;52.562;13.418;2022-11-13T09:27:39;15.90;37.90
22827;DHT22;11580;52.562;13.418;2022-11-13T09:30:25;15.90;37.90
22827;DHT22;11580;52.562;13.418;2022-11-13T09:33:12;15.90;37.80
22827;DHT22;11580;52.562;13.418;2022-11-13T09:35:58;15.90;37.80
22827;DHT22;11580;52.562;13.418;2022-11-13T09:38:46;16.00;38.50
22827;DHT22;11580;52.562;13.418;2022-11-13T09:41:36;16.00;37.70
22827;DHT22;11580;52.562;13.418;2022-11-13T09:44:28;16.00;37.60
22827;DHT22;11580;52.562;13.418;2022-11-13T09:47:20;16.00;37.60
22827;DHT22;11580;52.562;13.418;2022-11-13T09:50:13;16.10;37.70
22827;DHT22;11580;52.562;13.418;2022-11-13T09:53:04;16.10;37.70
22827;DHT22;11580;52.562;13.418;2022-11-13T09:55:56;16.20;37.70
22827;DHT22;11580;52.562;13.418;2022-11-13T09:58:50;16.20;37.10
22827;DHT22;11580;52.562;13.418;2022-11-13T10:01:49;16.20;36.90
22827;DHT22;11580;52.562;13.418;2022-11-13T10:04:52;16.30;36.40
22827;DHT22;11580;52.562;13.418;2022-11-13T10:07:52;16.30;36.20
22827;DHT22;11580;52.562;13.418;2022-11-13T10:10:48;16.30;36.30
22827;DHT22;11580;52.562;13.418;2022-11-13T10:13:43;16.40;36.10
22827;DHT22;11580;52.562;13.418;2022-11-13T10:16:33;16.40;35.60
22827;DHT22;11580;52.562;13.418;2022-11-13T10:19:26;16.40;35.80
22827;DHT22;11580;52.562;13.418;2022-11-13T10:22:19;16.50;35.70
22827;DHT22;11580;52.562;13.418;2022-11-13T10:25:14;16.50;35.60
22827;DHT22;11580;52.562;13.418;2022-11-13T10:28:10;16.50;35.40
22827;DHT22;11580;52.562;13.418;2022-11-13T10:30:59;16.40;35.10
22827;DHT22;11580;52.562;13.418;2022-11-13T10:33:45;16.50;35.40
22827;DHT22;11580;52.562;13.418;2022-11-13T10:36:35;16.50;35.60
22827;DHT22;11580;52.562;13.418;2022-11-13T10:39:26;16.50;35.20
22827;DHT22;11580;52.562;13.418;2022-11-13T10:42:22;16.50;35.70
22827;DHT22;11580;52.562;13.418;2022-11-13T10:45:15;16.60;35.60
22827;DHT22;11580;52.562;13.418;2022-11-13T10:48:17;16.60;35.10
22827;DHT22;11580;52.562;13.418;2022-11-13T10:51:14;16.70;35.40
22827;DHT22;11580;52.562;13.418;2022-11-13T10:54:20;16.80;36.00
22827;DHT22;11580;52.562;13.418;2022-11-13T10:57:21;16.90;34.30
22827;DHT22;11580;52.562;13.418;2022-11-13T11:00:21;16.90;33.90
22827;DHT22;11580;52.562;13.418;2022-11-13T11:03:14;17.00;34.00
22827;DHT22;11580;52.562;13.418;2022-11-13T11:06:03;17.00;34.00
22827;DHT22;11580;52.562;13.418;2022-11-13T11:08:49;17.00;34.00
22827;DHT22;11580;52.562;13.418;2022-11-13T11:11:34;17.00;34.00
22827;DHT22;11580;52.562;13.418;2022-11-13T11:14:41;17.00;34.70
22827;DHT22;11580;52.562;13.418;2022-11-13T11:17:43;17.00;34.00
22827;DHT22;11580;52.562;13.418;2022-11-13T11:20:44;17.10;33.90
22827;DHT22;11580;52.562;13.418;2022-11-13T11:23:38;17.10;33.30
22827;DHT22;11580;52.562;13.418;2022-11-13T11:26:31;17.10;33.50
22827;DHT22;11580;52.562;13.418;2022-11-13T11:29:26;17.20;33.20
22827;DHT22;11580;52.562;13.418;2022-11-13T11:32:16;17.20;32.70
22827;DHT22;11580;52.562;13.418;2022-11-13T11:35:13;17.20;33.00
22827;DHT22;11580;52.562;13.418;2022-11-13T11:38:08;17.20;32.40
22827;DHT22;11580;52.562;13.418;2022-11-13T11:41:04;17.20;32.40
22827;DHT22;11580;52.562;13.418;2022-11-13T11:44:02;17.20;32.20
22827;DHT22;11580;52.562;13.418;2022-11-13T11:46:54;17.20;32.00
22827;DHT22;11580;52.562;13.418;2022-11-13T11:49:40;17.20;32.60
22827;DHT22;11580;52.562;13.418;2022-11-13T11:52:54;17.20;32.60
22827;DHT22;11580;52.562;13.418;2022-11-13T11:56:07;17.10;32.00
22827;DHT22;11580;52.562;13.418;2022-11-13T11:59:22;17.10;32.90
22827;DHT22;11580;52.562;13.418;2022-11-13T12:02:38;17.20;32.30
22827;DHT22;11580;52.562;13.418;2022-11-13T12:05:43;17.20;32.30
22827;DHT22;11580;52.562;13.418;2022-11-13T12:08:42;17.30;31.90
22827;DHT22;11580;52.562;13.418;2022-11-13T12:11:35;17.30;31.90
22827;DHT22;11580;52.562;13.418;2022-11-13T12:14:34;17.40;32.10
22827;DHT22;11580;52.562;13.418;2022-11-13T12:17:38;17.40;31.50
22827;DHT22;11580;52.562;13.418;2022-11-13T12:20:37;17.30;31.20
22827;DHT22;11580;52.562;13.418;2022-11-13T12:23:36;17.20;31.40
22827;DHT22;11580;52.562;13.418;2022-11-13T12:26:36;17.10;31.30
22827;DHT22;11580;52.562;13.418;2022-11-13T12:29:44;17.10;32.10
22827;DHT22;11580;52.562;13.418;2022-11-13T12:32:53;17.00;31.40
22827;DHT22;11580;52.562;13.418;2022-11-13T12:35:50;16.90;31.40
22827;DHT22;11580;52.562;13.418;2022-11-13T12:38:43;16.80;31.70
22827;DHT22;11580;52.562;13.418;2022-11-13T12:41:41;16.70;31.70
22827;DHT22;11580;52.562;13.418;2022-11-13T12:44:36;16.60;32.50
22827;DHT22;11580;52.562;13.418;2022-11-13T12:47:33;16.40;31.80
22827;DHT22;11580;52.562;13.418;2022-11-13T12:50:24;16.30;32.10
22827;DHT22;11580;52.562;13.418;2022-11-13T12:53:22;16.20;32.20
22827;DHT22;11580;52.562;13.418;2022-11-13T12:56:14;16.30;32.70
22827;DHT22;11580;52.562;13.418;2022-11-13T12:59:29;16.10;32.60
22827;DHT22;11580;52.562;13.418;2022-11-13T13:02:36;16.00;32.70
22827;DHT22;11580;52.562;13.418;2022-11-13T13:05:44;15.90;33.10
22827;DHT22;11580;52.562;13.418;2022-11-13T13:12:10;15.80;33.00
22827;DHT22;11580;52.562;13.418;2022-11-13T13:15:29;15.70;32.90
22827;DHT22;11580;52.562;13.418;2022-11-13T13:18:25;15.70;33.60
22827;DHT22;11580;52.562;13.418;2022-11-13T13:21:14;15.70;32.90
22827;DHT22;11580;52.562;13.418;2022-11-13T13:24:07;15.60;33.10
22827;DHT22;11580;52.562;13.418;2022-11-13T13:26:54;15.60;33.10
22827;DHT22;11580;52.562;13.418;2022-11-13T13:29:40;15.60;33.90
22827;DHT22;11580;52.562;13.418;2022-11-13T13:32:33;15.60;33.30
22827;DHT22;11580;52.562;13.418;2022-11-13T13:35:30;15.60;33.30
22827;DHT22;11580;52.562;13.418;2022-11-13T13:38:27;15.50;33.30
22827;DHT22;11580;52.562;13.418;2022-11-13T13:41:31;15.50;33.40
22827;DHT22;11580;52.562;13.418;2022-11-13T13:44:40;15.50;33.50
22827;DHT22;11580;52.562;13.418;2022-11-13T13:47:41;15.40;33.40
22827;DHT22;11580;52.562;13.418;2022-11-13T13:50:32;15.40;33.40
22827;DHT22;11580;52.562;13.418;2022-11-13T13:53:25;15.40;33.50
22827;DHT22;11580;52.562;13.418;2022-11-13T13:56:15;15.40;33.60
22827;DHT22;11580;52.562;13.418;2022-11-13T13:59:02;15.40;33.60
22827;DHT22;11580;52.562;13.418;2022-11-13T14:01:55;15.30;33.60
22827;DHT22;11580;52.562;13.418;2022-11-13T14:04:45;15.30;33.60
22827;DHT22;11580;52.562;13.418;2022-11-13T14:07:31;15.30;33.60
22827;DHT22;11580;52.562;13.418;2022-11-13T14:10:20;15.30;33.70
22827;DHT22;11580;52.562;13.418;2022-11-13T14:13:11;15.20;33.70
22827;DHT22;11580;52.562;13.418;2022-11-13T14:16:02;15.20;33.70
22827;DHT22;11580;52.562;13.418;2022-11-13T14:18:48;15.10;33.70
22827;DHT22;11580;52.562;13.418;2022-11-13T14:21:35;15.10;33.70
22827;DHT22;11580;52.562;13.418;2022-11-13T14:24:23;15.10;33.80
22827;DHT22;11580;52.562;13.418;2022-11-13T14:27:19;15.10;34.60
22827;DHT22;11580;52.562;13.418;2022-11-13T14:30:21;15.00;34.70
22827;DHT22;11580;52.562;13.418;2022-11-13T14:33:12;15.00;34.10
22827;DHT22;11580;52.562;13.418;2022-11-13T14:36:01;14.90;34.00
22827;DHT22;11580;52.562;13.418;2022-11-13T14:38:49;14.90;34.00
22827;DHT22;11580;52.562;13.418;2022-11-13T14:41:38;14.80;34.00
22827;DHT22;11580;52.562;13.418;2022-11-13T14:44:31;14.80;34.10
22827;DHT22;11580;52.562;13.418;2022-11-13T14:47:23;14.70;34.10
22827;DHT22;11580;52.562;13.418;2022-11-13T14:50:29;14.60;34.90
22827;DHT22;11580;52.562;13.418;2022-11-13T14:53:26;14.60;34.40
22827;DHT22;11580;52.562;13.418;2022-11-13T14:56:14;14.50;34.30
22827;DHT22;11580;52.562;13.418;2022-11-13T14:59:07;14.40;34.20
22827;DHT22;11580;52.562;13.418;2022-11-13T15:01:55;14.40;34.50
22827;DHT22;11580;52.562;13.418;2022-11-13T15:04:42;14.30;34.20
22827;DHT22;11580;52.562;13.418;2022-11-13T15:07:29;14.30;34.30
22827;DHT22;11580;52.562;13.418;2022-11-13T15:10:18;14.20;34.40
22827;DHT22;11580;52.562;13.418;2022-11-13T15:13:10;14.10;34.50
22827;DHT22;11580;52.562;13.418;2022-11-13T15:15:57;14.10;35.60
22827;DHT22;11580;52.562;13.418;2022-11-13T15:18:45;14.00;34.50
22827;DHT22;11580;52.562;13.418;2022-11-13T15:21:34;14.00;34.80
22827;DHT22;11580;52.562;13.418;2022-11-13T15:24:19;13.90;34.70
22827;DHT22;11580;52.562;13.418;2022-11-13T15:27:05;13.80;34.70
22827;DHT22;11580;52.562;13.418;2022-11-13T15:29:55;13.80;34.80
22827;DHT22;11580;52.562;13.418;2022-11-13T15:32:41;13.70;35.00
22827;DHT22;11580;52.562;13.418;2022-11-13T15:35:27;13.60;34.90
22827;DHT22;11580;52.562;13.418;2022-11-13T15:38:12;13.60;35.00
22827;DHT22;11580;52.562;13.418;2022-11-13T15:40:58;13.50;35.10
22827;DHT22;11580;52.562;13.418;2022-11-13T15:43:45;13.40;35.20
22827;DHT22;11580;52.562;13.418;2022-11-13T15:46:34;13.40;35.50
22827;DHT22;11580;52.562;13.418;2022-11-13T15:49:20;13.30;35.60
22827;DHT22;11580;52.562;13.418;2022-11-13T15:52:07;13.40;35.60
22827;DHT22;11580;52.562;13.418;2022-11-13T15:54:53;13.20;35.60
22827;DHT22;11580;52.562;13.418;2022-11-13T15:57:39;13.10;35.60
22827;DHT22;11580;52.562;13.418;2022-11-13T16:00:26;13.10;35.70
22827;DHT22;11580;52.562;13.418;2022-11-13T16:03:14;13.10;36.00
22827;DHT22;11580;52.562;13.418;2022-11-13T16:06:00;13.10;36.20
22827;DHT22;11580;52.562;13.418;2022-11-13T16:08:46;12.90;36.70
22827;DHT22;11580;52.562;13.418;2022-11-13T16:11:33;12.90;36.10
22827;DHT22;11580;52.562;13.418;2022-11-13T16:14:19;12.80;36.90
22827;DHT22;11580;52.562;13.418;2022-11-13T16:17:09;12.80;36.20
22827;DHT22;11580;52.562;13.418;2022-11-13T16:19:57;12.70;36.30
22827;DHT22;11580;52.562;13.418;2022-11-13T16:22:43;12.60;36.40
22827;DHT22;11580;52.562;13.418;2022-11-13T16:25:30;12.60;36.40
22827;DHT22;11580;52.562;13.418;2022-11-13T16:28:16;12.50;37.00
22827;DHT22;11580;52.562;13.418;2022-11-13T16:31:02;12.50;36.30
22827;DHT22;11580;52.562;13.418;2022-11-13T16:33:48;12.50;36.30
22827;DHT22;11580;52.562;13.418;2022-11-13T16:36:36;12.40;36.30
22827;DHT22;11580;52.562;13.418;2022-11-13T16:39:21;12.40;36.70
22827;DHT22;11580;52.562;13.418;2022-11-13T16:42:07;12.40;36.50
22827;DHT22;11580;52.562;13.418;2022-11-13T16:44:52;12.30;36.50
22827;DHT22;11580;52.562;13.418;2022-11-13T16:47:38;12.30;37.30
22827;DHT22;11580;52.562;13.418;2022-11-13T16:50:32;12.20;36.50
22827;DHT22;11580;52.562;13.418;2022-11-13T16:53:21;12.20;37.50
22827;DHT22;11580;52.562;13.418;2022-11-13T16:56:11;12.20;36.90
22827;DHT22;11580;52.562;13.418;2022-11-13T16:58:58;12.10;37.20
22827;DHT22;11580;52.562;13.418;2022-11-13T17:01:43;12.10;36.70
22827;DHT22;11580;52.562;13.418;2022-11-13T17:04:29;12.00;36.70
22827;DHT22;11580;52.562;13.418;2022-11-13T17:07:15;12.10;36.90
22827;DHT22;11580;52.562;13.418;2022-11-13T17:10:02;12.00;36.90
22827;DHT22;11580;52.562;13.418;2022-11-13T17:12:49;11.90;37.20
22827;DHT22;11580;52.562;13.418;2022-11-13T17:15:35;11.90;37.30
22827;DHT22;11580;52.562;13.418;2022-11-13T17:18:20;11.80;37.00
22827;DHT22;11580;52.562;13.418;2022-11-13T17:21:06;11.80;37.00
22827;DHT22;11580;52.562;13.418;2022-11-13T17:23:53;11.80;37.80
22827;DHT22;11580;52.562;13.418;2022-11-13T17:26:41;11.70;37.30
22827;DHT22;11580;52.562;13.418;2022-11-13T17:29:27;11.70;37.40
22827;DHT22;11580;52.562;13.418;2022-11-13T17:32:13;11.70;37.20
22827;DHT22;11580;52.562;13.418;2022-11-13T17:34:58;11.60;37.30